RKSO/OSN METAR and TAF weather

Enter ICAO airport designator
Station Type Date Time Source
RKSO METAR 2019/10/23 19:58 UTC NOAA

RKSO 231958Z 00000KT 7SM BKN110 14/12 A3010 RMK AO2A SLP196 T01390116 $


Station Type Date Time Source
RKSO Decoded METAR 2019/10/23 19:58 UTC NOAA

Osan Ab, Korea, South (RKSO) 37-06N 127-02E 12M
Oct 23, 2019 - 03:58 PM EDT / 2019.10.23 1958 UTC
Wind: Calm:0
Visibility: 7 mile(s):0
Sky conditions: mostly cloudy
Temperature: 57.0 F (13.9 C)
Dew Point: 52.9 F (11.6 C)
Relative Humidity: 86%
Pressure (altimeter): 30.1 in. Hg (1019 hPa)
ob: RKSO 231958Z 00000KT 7SM BKN110 14/12 A3010 RMK AO2A SLP196 T01390116
cycle: 20

Station Type Date Time Source
RKSO TAF 2019/10/23 17:06 UTC NOAA

TAF TAF RKSO 231700Z 2317/2423 VRB06KT 9999 FEW030 OVC120 QNH3008INS
BECMG 2402/2403 06009KT 9999 SCT030 BKN100 QNH3005INS TX23/2407Z TN11/2318Z

Example: see airport list